createdAt,value
2023-05-21T00:01:46.128Z,100596.78
2023-05-21T00:04:16.291Z,100591.13
2023-05-21T00:06:43.634Z,100589.50
2023-05-21T00:09:13.960Z,100590.31
2023-05-21T00:11:44.873Z,100582.25
2023-05-21T00:14:14.481Z,100581.84
2023-05-21T00:16:42.232Z,100573.78
2023-05-21T00:19:10.419Z,100576.59
2023-05-21T00:21:40.086Z,100569.72
2023-05-21T00:24:13.250Z,100568.94
2023-05-21T00:26:43.120Z,100568.94
2023-05-21T00:29:12.946Z,100569.75
2023-05-21T00:31:43.350Z,100562.50
2023-05-21T00:34:10.767Z,100560.03
2023-05-21T00:36:40.385Z,100564.50
2023-05-21T00:39:09.121Z,100552.38
2023-05-21T00:41:38.710Z,100546.72
2023-05-21T00:44:14.173Z,100547.16
2023-05-21T00:46:44.359Z,100548.75
2023-05-21T00:49:14.928Z,100545.91
2023-05-21T00:51:45.785Z,100540.25
2023-05-21T00:54:15.862Z,100544.69
2023-05-21T00:56:46.076Z,100540.25
2023-05-21T00:59:16.231Z,100537.84
2023-05-21T01:01:45.737Z,100535.03
2023-05-21T01:04:16.691Z,100546.72
2023-05-21T01:06:46.920Z,100539.84
2023-05-21T01:09:17.228Z,100530.97
2023-05-21T01:11:48.811Z,100538.66
2023-05-21T01:14:19.897Z,100531.00
2023-05-21T01:16:52.436Z,100538.25
2023-05-21T01:19:24.628Z,100538.69
2023-05-21T01:22:00.678Z,100537.06
2023-05-21T01:24:28.146Z,100541.13
2023-05-21T01:26:58.776Z,100539.91
2023-05-21T01:29:28.170Z,100535.84
2023-05-21T01:32:10.030Z,100529.44
2023-05-21T01:34:54.815Z,100532.25
2023-05-21T01:37:30.085Z,100531.84
2023-05-21T01:40:02.937Z,100528.22
2023-05-21T01:42:35.233Z,100525.78
2023-05-21T01:45:06.240Z,100523.78
2023-05-21T01:47:37.461Z,100533.06
2023-05-21T01:50:06.455Z,100534.28
2023-05-21T01:52:36.167Z,100524.16
2023-05-21T01:55:04.097Z,100526.19
2023-05-21T01:57:34.469Z,100523.78
2023-05-21T02:00:06.083Z,100520.13
2023-05-21T02:02:45.061Z,100519.34
2023-05-21T02:05:15.144Z,100514.06
2023-05-21T02:07:45.363Z,100514.06
2023-05-21T02:10:12.898Z,100514.88
2023-05-21T02:12:43.348Z,100503.56
2023-05-21T02:15:14.473Z,100505.97
2023-05-21T02:17:44.427Z,100506.41
2023-05-21T02:20:15.646Z,100515.28
2023-05-21T02:22:49.446Z,100508.44
2023-05-21T02:25:18.558Z,100510.41
2023-05-21T02:27:47.022Z,100503.56
2023-05-21T02:30:16.303Z,100502.38
2023-05-21T02:32:51.903Z,100499.91
2023-05-21T02:35:24.853Z,100498.72
2023-05-21T02:37:54.795Z,100501.13
2023-05-21T02:40:24.319Z,100487.81
2023-05-21T02:42:51.878Z,100485.00
2023-05-21T02:45:21.500Z,100485.78
2023-05-21T02:47:51.121Z,100492.63
2023-05-21T02:50:20.281Z,100489.00
2023-05-21T02:52:59.642Z,100480.53
2023-05-21T02:55:29.529Z,100480.53
2023-05-21T02:57:56.855Z,100465.59
2023-05-21T03:00:25.982Z,100470.03
2023-05-21T03:02:55.717Z,100466.81
2023-05-21T03:05:25.354Z,100463.59
2023-05-21T03:07:53.403Z,100462.78
2023-05-21T03:10:21.283Z,100473.63
2023-05-21T03:12:51.013Z,100474.44
2023-05-21T03:15:23.837Z,100471.59
2023-05-21T03:17:55.967Z,100469.19
2023-05-21T03:20:23.975Z,100470.41
2023-05-21T03:22:55.106Z,100468.38
2023-05-21T03:25:25.397Z,100463.94
2023-05-21T03:27:54.701Z,100461.94
2023-05-21T03:30:49.780Z,100469.19
2023-05-21T03:33:45.623Z,100451.44
2023-05-21T03:36:27.322Z,100453.06
2023-05-21T03:38:56.872Z,100455.88
2023-05-21T03:41:27.271Z,100454.66
2023-05-21T03:44:00.830Z,100454.66
2023-05-21T03:46:34.140Z,100451.44
2023-05-21T03:49:06.780Z,100460.31
2023-05-21T03:51:38.307Z,100455.88
2023-05-21T03:54:06.329Z,100455.06
2023-05-21T03:56:37.058Z,100456.66
2023-05-21T03:59:07.028Z,100460.72
2023-05-21T04:01:34.930Z,100453.03
2023-05-21T04:04:02.875Z,100460.72
2023-05-21T04:06:30.472Z,100457.09
2023-05-21T04:08:58.773Z,100463.53
2023-05-21T04:11:28.293Z,100465.94
2023-05-21T04:13:58.075Z,100466.75
2023-05-21T04:16:27.090Z,100463.53
2023-05-21T04:18:55.582Z,100463.13
2023-05-21T04:21:27.580Z,100468.38
2023-05-21T04:24:02.431Z,100472.81
2023-05-21T04:26:55.111Z,100481.28
2023-05-21T04:29:25.962Z,100471.59
2023-05-21T04:31:53.599Z,100470.38
2023-05-21T04:34:23.465Z,100473.63
2023-05-21T04:36:58.581Z,100469.19
2023-05-21T04:39:31.051Z,100471.59
2023-05-21T04:42:01.087Z,100471.19
2023-05-21T04:44:29.031Z,100463.91
2023-05-21T04:47:01.704Z,100471.59
2023-05-21T04:49:36.509Z,100466.75
2023-05-21T04:52:08.319Z,100468.75
2023-05-21T04:54:40.499Z,100471.59
2023-05-21T04:57:11.293Z,100471.59
2023-05-21T04:59:41.530Z,100470.00
2023-05-21T05:02:09.504Z,100472.81
2023-05-21T05:04:36.864Z,100477.66
2023-05-21T05:07:04.597Z,100470.78
2023-05-21T05:09:32.119Z,100477.25
2023-05-21T05:12:01.912Z,100479.69
2023-05-21T05:14:32.860Z,100475.63
2023-05-21T05:17:02.556Z,100478.47
2023-05-21T05:19:32.396Z,100484.09
2023-05-21T05:22:04.643Z,100484.50
2023-05-21T05:24:37.972Z,100484.50
2023-05-21T05:27:07.924Z,100486.94
2023-05-21T05:29:37.482Z,100488.53
2023-05-21T05:32:10.013Z,100486.94
2023-05-21T05:34:38.010Z,100484.91
2023-05-21T05:37:06.382Z,100482.09
2023-05-21T05:39:36.173Z,100482.09
2023-05-21T05:42:04.118Z,100483.31
2023-05-21T05:44:31.628Z,100486.13
2023-05-21T05:46:59.678Z,100485.72
2023-05-21T05:49:28.371Z,100478.88
2023-05-21T05:51:58.230Z,100492.97
2023-05-21T05:54:25.877Z,100490.13
2023-05-21T05:56:53.289Z,100493.81
2023-05-21T05:59:21.042Z,100486.94
2023-05-21T06:01:52.716Z,100486.94
2023-05-21T06:04:20.153Z,100488.94
2023-05-21T06:06:52.470Z,100488.16
2023-05-21T06:09:22.097Z,100485.31
2023-05-21T06:11:56.417Z,100486.13
2023-05-21T06:14:23.691Z,100478.84
2023-05-21T06:16:51.385Z,100482.06
2023-05-21T06:19:19.401Z,100480.47
2023-05-21T06:21:50.374Z,100484.91
2023-05-21T06:24:17.896Z,100489.75
2023-05-21T06:26:47.717Z,100493.78
2023-05-21T06:29:18.217Z,100485.72
2023-05-21T06:31:49.926Z,100492.16
2023-05-21T06:34:19.915Z,100501.44
2023-05-21T06:36:49.808Z,100492.16
2023-05-21T06:39:20.202Z,100489.34
2023-05-21T06:41:50.132Z,100490.13
2023-05-21T06:44:46.576Z,100494.97
2023-05-21T06:47:28.031Z,100491.78
2023-05-21T06:50:01.380Z,100510.75
2023-05-21T06:52:35.687Z,100497.00
2023-05-21T06:55:08.343Z,100497.44
2023-05-21T06:58:08.175Z,100497.00
2023-05-21T07:00:38.216Z,100499.03
2023-05-21T07:03:05.886Z,100498.66
2023-05-21T07:05:36.145Z,100499.03
2023-05-21T07:08:04.654Z,100501.47
2023-05-21T07:10:34.552Z,100504.34
2023-05-21T07:13:01.982Z,100499.91
2023-05-21T07:15:30.172Z,100502.75
2023-05-21T07:18:00.227Z,100498.28
2023-05-21T07:20:30.387Z,100498.69
2023-05-21T07:23:03.986Z,100499.91
2023-05-21T07:25:32.849Z,100505.56
2023-05-21T07:28:05.199Z,100499.50
2023-05-21T07:30:36.409Z,100488.63
2023-05-21T07:33:09.700Z,100491.44
2023-05-21T07:35:39.915Z,100498.31
2023-05-21T07:38:07.978Z,100498.31
2023-05-21T07:40:37.618Z,100503.97
2023-05-21T07:43:05.604Z,100506.38
2023-05-21T07:45:36.953Z,100506.00
2023-05-21T07:48:05.701Z,100511.63
2023-05-21T07:50:39.994Z,100499.53
2023-05-21T07:53:09.790Z,100500.72
2023-05-21T07:55:47.453Z,100501.56
2023-05-21T07:58:18.236Z,100511.22
2023-05-21T08:00:48.799Z,100504.78
2023-05-21T08:03:43.952Z,100506.00
2023-05-21T08:06:13.901Z,100509.22
2023-05-21T08:08:43.764Z,100512.47
2023-05-21T08:11:11.264Z,100507.63
2023-05-21T08:13:43.927Z,100516.50
2023-05-21T08:16:16.701Z,100512.06
2023-05-21T08:18:44.456Z,100515.69
2023-05-21T08:21:18.137Z,100520.56
2023-05-21T08:23:48.574Z,100514.88
2023-05-21T08:26:18.335Z,100508.84
2023-05-21T08:28:47.936Z,100505.63
2023-05-21T08:31:15.406Z,100507.66
2023-05-21T08:33:50.599Z,100508.81
2023-05-21T08:36:19.304Z,100504.78
2023-05-21T08:38:58.453Z,100506.00
2023-05-21T08:41:36.029Z,100510.84
2023-05-21T08:44:06.108Z,100516.88
2023-05-21T08:46:34.955Z,100509.22
2023-05-21T08:49:03.656Z,100510.06
2023-05-21T08:51:31.140Z,100512.06
2023-05-21T08:54:02.931Z,100504.81
2023-05-21T08:56:32.723Z,100508.44
2023-05-21T08:59:00.810Z,100507.22
2023-05-21T09:01:38.615Z,100497.94
2023-05-21T09:04:26.949Z,100487.03
2023-05-21T09:06:57.984Z,100508.44
2023-05-21T09:09:55.772Z,100497.16
2023-05-21T09:12:28.431Z,100503.19
2023-05-21T09:15:02.132Z,100500.34
2023-05-21T09:17:38.812Z,100502.38
2023-05-21T09:20:28.662Z,100505.59
2023-05-21T09:23:03.735Z,100516.91
2023-05-21T09:25:31.529Z,100499.13
2023-05-21T09:28:04.439Z,100502.38
2023-05-21T09:30:35.641Z,100504.78
2023-05-21T09:33:04.019Z,100520.53
2023-05-21T09:35:38.226Z,100505.19
2023-05-21T09:38:09.513Z,100506.38
2023-05-21T09:40:44.912Z,100498.31
2023-05-21T09:43:18.277Z,100496.72
2023-05-21T09:45:56.117Z,100503.19
2023-05-21T09:48:40.757Z,100498.75
2023-05-21T09:51:15.087Z,100502.34
2023-05-21T09:53:50.988Z,100499.91
2023-05-21T09:56:24.890Z,100501.56
2023-05-21T09:58:58.119Z,100499.53
2023-05-21T10:01:25.543Z,100502.34
2023-05-21T10:03:57.776Z,100513.66
2023-05-21T10:06:34.771Z,100507.59
2023-05-21T10:09:06.176Z,100514.44
2023-05-21T10:11:37.372Z,100510.03
2023-05-21T10:14:16.497Z,100511.25
2023-05-21T10:16:45.046Z,100507.19
2023-05-21T10:19:16.530Z,100504.34
2023-05-21T10:21:45.866Z,100503.13
2023-05-21T10:24:13.873Z,100504.75
2023-05-21T10:26:41.416Z,100505.53
2023-05-21T10:29:10.139Z,100505.94
2023-05-21T10:31:39.226Z,100505.53
2023-05-21T10:34:10.409Z,100509.97
2023-05-21T10:36:41.379Z,100504.31
2023-05-21T10:39:12.523Z,100497.84
2023-05-21T10:41:59.198Z,100506.31
2023-05-21T10:45:03.913Z,100503.91
2023-05-21T10:47:48.054Z,100493.41
2023-05-21T10:50:54.046Z,100492.97
2023-05-21T10:53:42.544Z,100488.97
2023-05-21T10:56:18.522Z,100484.16
2023-05-21T10:59:01.308Z,100489.41
2023-05-21T11:01:35.668Z,100495.03
2023-05-21T11:04:05.266Z,100489.34
2023-05-21T11:06:35.788Z,100487.72
2023-05-21T11:09:14.832Z,100491.34
2023-05-21T11:11:49.914Z,100483.28
2023-05-21T11:14:40.503Z,100478.03
2023-05-21T11:17:14.060Z,100478.00
2023-05-21T11:19:50.975Z,100481.66
2023-05-21T11:22:23.201Z,100482.44
2023-05-21T11:24:51.759Z,100475.56
2023-05-21T11:27:33.439Z,100478.03
2023-05-21T11:30:06.887Z,100481.25
2023-05-21T11:32:41.217Z,100481.22
2023-05-21T11:35:17.115Z,100473.13
2023-05-21T11:37:53.729Z,100475.16
2023-05-21T11:40:28.742Z,100471.13
2023-05-21T11:42:57.320Z,100466.28
2023-05-21T11:45:31.632Z,100469.88
2023-05-21T11:47:59.180Z,100472.72
2023-05-21T11:50:32.053Z,100460.66
2023-05-21T11:52:59.945Z,100465.06
2023-05-21T11:55:29.713Z,100466.69
2023-05-21T11:58:01.895Z,100459.38
2023-05-21T12:00:29.567Z,100458.59
2023-05-21T12:02:59.477Z,100453.34
2023-05-21T12:05:27.235Z,100444.88
2023-05-21T12:07:55.588Z,100458.97
2023-05-21T12:10:25.281Z,100454.50
2023-05-21T12:12:56.369Z,100459.38
2023-05-21T12:15:27.060Z,100465.06
2023-05-21T12:17:57.956Z,100461.41
2023-05-21T12:20:29.086Z,100457.38
2023-05-21T12:22:59.322Z,100450.06
2023-05-21T12:25:27.458Z,100443.59
2023-05-21T12:27:58.887Z,100454.94
2023-05-21T12:30:26.816Z,100453.28
2023-05-21T12:33:02.167Z,100448.06
2023-05-21T12:35:31.034Z,100457.75
2023-05-21T12:38:01.528Z,100453.72
2023-05-21T12:40:37.321Z,100463.00
2023-05-21T12:43:08.541Z,100456.94
2023-05-21T12:45:37.205Z,100450.09
2023-05-21T12:48:10.055Z,100445.22
2023-05-21T12:50:43.096Z,100442.00
2023-05-21T12:53:13.231Z,100448.47
2023-05-21T12:55:42.889Z,100448.91
2023-05-21T12:58:14.088Z,100446.88
2023-05-21T13:00:46.930Z,100448.03
2023-05-21T13:03:19.128Z,100441.59
2023-05-21T13:05:46.804Z,100440.38
2023-05-21T13:08:16.982Z,100437.94
2023-05-21T13:10:46.890Z,100435.09
2023-05-21T13:13:19.231Z,100439.56
2023-05-21T13:15:46.618Z,100433.53
2023-05-21T13:18:16.205Z,100444.00
2023-05-21T13:20:45.794Z,100435.91
2023-05-21T13:23:16.476Z,100434.28
2023-05-21T13:25:43.841Z,100425.41
2023-05-21T13:28:17.297Z,100433.47
2023-05-21T13:30:44.639Z,100433.50
2023-05-21T13:33:12.348Z,100436.31
2023-05-21T13:35:41.944Z,100428.63
2023-05-21T13:38:11.517Z,100429.44
2023-05-21T13:40:39.299Z,100429.41
2023-05-21T13:43:16.830Z,100424.94
2023-05-21T13:45:44.799Z,100431.03
2023-05-21T13:48:12.972Z,100423.34
2023-05-21T13:50:40.454Z,100431.47
2023-05-21T13:53:10.090Z,100434.28
2023-05-21T13:55:39.620Z,100434.28
2023-05-21T13:58:07.006Z,100439.13
2023-05-21T14:00:34.600Z,100442.78
2023-05-21T14:03:09.902Z,100439.09
2023-05-21T14:05:38.111Z,100431.41
2023-05-21T14:08:05.642Z,100424.56
2023-05-21T14:10:33.092Z,100422.13
2023-05-21T14:13:07.798Z,100423.75
2023-05-21T14:15:46.168Z,100422.94
2023-05-21T14:18:13.565Z,100428.59
2023-05-21T14:20:41.131Z,100427.44
2023-05-21T14:23:09.442Z,100431.88
2023-05-21T14:25:39.127Z,100439.16
2023-05-21T14:28:09.929Z,100431.88
2023-05-21T14:30:39.523Z,100420.13
2023-05-21T14:33:09.057Z,100422.16
2023-05-21T14:35:41.449Z,100415.28
2023-05-21T14:38:12.755Z,100422.56
2023-05-21T14:40:40.565Z,100420.13
2023-05-21T14:43:08.137Z,100426.19
2023-05-21T14:45:35.717Z,100414.06
2023-05-21T14:48:08.443Z,100416.09
2023-05-21T14:50:38.307Z,100419.75
2023-05-21T14:53:10.368Z,100410.44
2023-05-21T14:55:38.948Z,100424.97
2023-05-21T14:58:07.175Z,100414.88
2023-05-21T15:00:35.614Z,100416.50
2023-05-21T15:03:05.254Z,100413.28
2023-05-21T15:05:37.169Z,100418.09
2023-05-21T15:08:06.183Z,100416.09
2023-05-21T15:10:38.686Z,100417.28
2023-05-21T15:13:06.224Z,100416.09
2023-05-21T15:15:33.787Z,100412.81
2023-05-21T15:18:06.076Z,100415.25
2023-05-21T15:20:36.148Z,100407.97
2023-05-21T15:25:36.340Z,100412.81
2023-05-21T15:28:03.969Z,100408.38
2023-05-21T15:30:33.459Z,100405.56
2023-05-21T15:33:00.936Z,100416.06
2023-05-21T15:35:28.442Z,100404.75
2023-05-21T15:37:55.906Z,100399.06
2023-05-21T15:40:27.136Z,100410.78
2023-05-21T15:42:54.693Z,100410.72
2023-05-21T15:45:22.059Z,100409.53
2023-05-21T15:47:52.502Z,100405.50
2023-05-21T15:50:22.345Z,100398.63
2023-05-21T15:52:53.340Z,100410.75
2023-05-21T15:55:21.243Z,100405.13
2023-05-21T15:57:55.061Z,100407.53
2023-05-21T16:00:22.487Z,100403.88
2023-05-21T16:02:49.898Z,100401.88
2023-05-21T16:05:17.281Z,100398.66
2023-05-21T16:07:44.581Z,100403.13
2023-05-21T16:10:16.688Z,100403.50
2023-05-21T16:12:48.613Z,100405.50
2023-05-21T16:15:16.230Z,100399.44
2023-05-21T16:17:43.533Z,100403.13
2023-05-21T16:20:11.576Z,100401.88
2023-05-21T16:22:41.172Z,100400.28
2023-05-21T16:25:11.230Z,100396.63
2023-05-21T16:27:38.693Z,100402.69
2023-05-21T16:30:07.551Z,100399.84
2023-05-21T16:32:34.984Z,100401.84
2023-05-21T16:35:04.959Z,100398.22
2023-05-21T16:37:32.299Z,100409.56
2023-05-21T16:40:02.639Z,100400.63
2023-05-21T16:42:32.441Z,100399.44
2023-05-21T16:45:02.707Z,100403.47
2023-05-21T16:47:32.329Z,100394.16
2023-05-21T16:50:00.857Z,100400.22
2023-05-21T16:52:30.624Z,100400.63
2023-05-21T16:54:58.123Z,100400.63
2023-05-21T16:57:25.411Z,100397.38
2023-05-21T16:59:54.954Z,100398.97
2023-05-21T17:02:24.602Z,100401.41
2023-05-21T17:04:51.973Z,100391.72
2023-05-21T17:07:21.439Z,100391.75
2023-05-21T17:09:51.013Z,100390.91
2023-05-21T17:12:18.507Z,100391.28
2023-05-21T17:14:45.969Z,100399.41
2023-05-21T17:17:16.438Z,100398.16
2023-05-21T17:19:46.150Z,100400.19
2023-05-21T17:22:14.542Z,100398.16
2023-05-21T17:24:44.273Z,100406.28
2023-05-21T17:27:12.034Z,100407.91
2023-05-21T17:29:42.582Z,100404.66
2023-05-21T17:32:10.501Z,100415.19
2023-05-21T17:34:40.866Z,100416.00
2023-05-21T17:37:08.337Z,100419.63
2023-05-21T17:39:37.971Z,100412.31
2023-05-21T17:42:05.544Z,100425.66
2023-05-21T17:44:36.122Z,100426.09
2023-05-21T17:47:03.589Z,100424.84
2023-05-21T17:49:32.275Z,100421.63
2023-05-21T17:52:04.482Z,100435.00
2023-05-21T17:54:34.152Z,100432.16
2023-05-21T17:57:01.600Z,100440.66
2023-05-21T17:59:31.508Z,100426.13
2023-05-21T18:02:01.462Z,100437.00
2023-05-21T18:04:32.031Z,100437.44
2023-05-21T18:06:59.388Z,100435.00
2023-05-21T18:09:28.951Z,100430.13
2023-05-21T18:11:56.228Z,100451.16
2023-05-21T18:14:28.349Z,100450.38
2023-05-21T18:16:58.417Z,100442.69
2023-05-21T18:19:26.156Z,100441.88
2023-05-21T18:21:53.595Z,100444.72
2023-05-21T18:24:21.020Z,100443.09
2023-05-21T18:26:49.298Z,100443.47
2023-05-21T18:29:21.499Z,100443.91
2023-05-21T18:31:49.193Z,100449.16
2023-05-21T18:34:21.130Z,100447.97
2023-05-21T18:36:50.645Z,100460.09
2023-05-21T18:39:18.000Z,100463.31
2023-05-21T18:41:45.368Z,100466.59
2023-05-21T18:44:12.655Z,100466.19
2023-05-21T18:46:40.024Z,100466.19
2023-05-21T18:49:07.373Z,100468.59
2023-05-21T18:51:34.737Z,100477.91
2023-05-21T18:54:02.577Z,100477.47
2023-05-21T18:56:29.976Z,100483.16
2023-05-21T18:58:57.618Z,100481.16
2023-05-21T19:01:25.122Z,100484.00
2023-05-21T19:03:57.238Z,100492.47
2023-05-21T19:06:27.764Z,100492.88
2023-05-21T19:08:57.825Z,100498.13
2023-05-21T19:11:31.034Z,100503.00
2023-05-21T19:13:59.398Z,100514.31
2023-05-21T19:16:28.897Z,100523.63
2023-05-21T19:18:59.277Z,100529.72
2023-05-21T19:21:29.548Z,100524.47
2023-05-21T19:24:10.459Z,100530.50
2023-05-21T19:26:40.020Z,100526.50
2023-05-21T19:29:09.627Z,100533.78
2023-05-21T19:31:39.073Z,100545.09
2023-05-21T19:34:11.131Z,100541.06
2023-05-21T19:36:52.405Z,100546.34
2023-05-21T19:39:21.692Z,100551.56
2023-05-21T19:41:53.011Z,100548.75
2023-05-21T19:44:20.298Z,100553.19
2023-05-21T19:46:50.000Z,100554.00
2023-05-21T19:49:19.807Z,100555.63
2023-05-21T19:51:49.389Z,100564.50
2023-05-21T19:54:19.347Z,100565.28
2023-05-21T19:56:48.889Z,100568.53
2023-05-21T19:59:16.619Z,100565.31
2023-05-21T20:01:47.041Z,100573.41
2023-05-21T20:04:16.877Z,100587.16
2023-05-21T20:06:46.654Z,100578.25
2023-05-21T20:09:16.267Z,100587.94
2023-05-21T20:11:48.340Z,100590.78
2023-05-21T20:14:15.936Z,100590.41
2023-05-21T20:16:47.157Z,100595.25
2023-05-21T20:19:16.983Z,100591.63
2023-05-21T20:21:44.545Z,100592.00
2023-05-21T20:24:14.336Z,100591.19
2023-05-21T20:26:49.213Z,100586.34
2023-05-21T20:29:16.718Z,100586.34
2023-05-21T20:31:44.442Z,100587.56
2023-05-21T20:34:12.363Z,100587.16
2023-05-21T20:36:43.459Z,100581.50
2023-05-21T20:39:12.239Z,100579.84
2023-05-21T20:41:41.857Z,100578.28
2023-05-21T20:44:09.648Z,100583.50
2023-05-21T20:46:38.558Z,100583.50
2023-05-21T20:49:07.646Z,100584.75
2023-05-21T20:51:37.496Z,100587.16
2023-05-21T20:54:04.975Z,100584.31
2023-05-21T20:56:41.942Z,100577.84
2023-05-21T20:59:11.959Z,100588.78
2023-05-21T21:01:41.766Z,100585.13
2023-05-21T21:04:09.429Z,100577.84
2023-05-21T21:06:40.611Z,100581.50
2023-05-21T21:09:10.411Z,100585.97
2023-05-21T21:11:37.836Z,100583.91
2023-05-21T21:14:05.336Z,100592.00
2023-05-21T21:16:32.697Z,100582.28
2023-05-21T21:19:02.961Z,100587.13
2023-05-21T21:21:31.316Z,100583.91
2023-05-21T21:24:01.223Z,100587.16
2023-05-21T21:26:28.551Z,100593.22
2023-05-21T21:28:56.475Z,100589.59
2023-05-21T21:31:26.886Z,100598.47
2023-05-21T21:33:54.378Z,100587.97
2023-05-21T21:36:22.160Z,100592.81
2023-05-21T21:38:51.893Z,100585.94
2023-05-21T21:41:22.444Z,100595.22
2023-05-21T21:43:52.404Z,100590.38
2023-05-21T21:46:19.829Z,100589.97
2023-05-21T21:48:52.168Z,100593.22
2023-05-21T21:51:23.348Z,100589.56
2023-05-21T21:53:51.030Z,100595.63
2023-05-21T21:56:20.929Z,100599.69
2023-05-21T21:58:48.372Z,100587.97
2023-05-21T22:01:16.305Z,100594.03
2023-05-21T22:03:45.853Z,100596.03
2023-05-21T22:06:13.200Z,100586.34
2023-05-21T22:08:42.996Z,100590.38
2023-05-21T22:11:10.638Z,100592.84
2023-05-21T22:13:40.184Z,100598.88
2023-05-21T22:16:07.898Z,100592.03
2023-05-21T22:18:41.316Z,100588.38
2023-05-21T22:21:10.838Z,100597.25
2023-05-21T22:23:40.688Z,100603.72
2023-05-21T22:26:10.212Z,100591.22
2023-05-21T22:28:39.767Z,100597.69
2023-05-21T22:31:10.209Z,100595.25
2023-05-21T22:33:37.486Z,100596.84
2023-05-21T22:36:07.442Z,100596.03
2023-05-21T22:38:35.255Z,100598.88
2023-05-21T22:41:03.675Z,100599.28
2023-05-21T22:43:33.540Z,100595.22
2023-05-21T22:46:03.168Z,100602.53
2023-05-21T22:48:34.405Z,100601.72
2023-05-21T22:51:01.972Z,100604.13
2023-05-21T22:53:33.352Z,100600.50
2023-05-21T22:56:01.373Z,100596.88
2023-05-21T22:58:30.868Z,100596.88
2023-05-21T23:00:58.338Z,100600.50
2023-05-21T23:03:28.181Z,100604.13
2023-05-21T23:05:57.603Z,100596.44
2023-05-21T23:08:25.278Z,100595.25
2023-05-21T23:10:52.788Z,100598.47
2023-05-21T23:13:20.348Z,100601.69
2023-05-21T23:15:50.825Z,100601.72
2023-05-21T23:18:18.125Z,100594.84
2023-05-21T23:20:45.576Z,100596.88
2023-05-21T23:23:12.883Z,100602.53
2023-05-21T23:25:40.143Z,100593.63
2023-05-21T23:28:07.445Z,100603.72
2023-05-21T23:30:34.986Z,100607.38
2023-05-21T23:33:04.914Z,100604.94
2023-05-21T23:35:36.166Z,100602.53
2023-05-21T23:38:06.255Z,100600.91
2023-05-21T23:40:33.653Z,100606.56
2023-05-21T23:43:01.248Z,100592.03
2023-05-21T23:45:31.204Z,100594.47
2023-05-21T23:47:58.587Z,100590.81
2023-05-21T23:50:25.983Z,100596.47
2023-05-21T23:52:53.322Z,100591.19
2023-05-21T23:55:20.716Z,100590.03
2023-05-21T23:57:48.002Z,100588.00
